sensor_id;sensor_type;location;lat;lon;timestamp;pressure;altitude;pressure_sealevel;temperature;humidity
32875;BME280;40468;42.128;24.750;2022-11-15T00:01:15;100450.47;;;7.75;77.34
32875;BME280;40468;42.128;24.750;2022-11-15T00:02:48;100456.44;;;7.78;77.31
32875;BME280;40468;42.128;24.750;2022-11-15T00:04:19;100446.94;;;7.78;77.60
32875;BME280;40468;42.128;24.750;2022-11-15T00:05:51;100452.97;;;7.79;77.25
32875;BME280;40468;42.128;24.750;2022-11-15T00:07:23;100446.00;;;7.81;77.27
32875;BME280;40468;42.128;24.750;2022-11-15T00:08:57;100445.16;;;7.80;77.05
32875;BME280;40468;42.128;24.750;2022-11-15T00:10:31;100446.88;;;7.81;77.02
32875;BME280;40468;42.128;24.750;2022-11-15T00:12:02;100446.81;;;7.83;77.00
32875;BME280;40468;42.128;24.750;2022-11-15T00:13:33;100443.38;;;7.82;77.21
32875;BME280;40468;42.128;24.750;2022-11-15T00:15:07;100445.97;;;7.82;76.97
32875;BME280;40468;42.128;24.750;2022-11-15T00:16:38;100447.81;;;7.77;76.81
32875;BME280;40468;42.128;24.750;2022-11-15T00:18:12;100441.91;;;7.72;76.85
32875;BME280;40468;42.128;24.750;2022-11-15T00:19:43;100448.03;;;7.68;77.01
32875;BME280;40468;42.128;24.750;2022-11-15T00:21:16;100443.81;;;7.64;76.93
32875;BME280;40468;42.128;24.750;2022-11-15T00:22:48;100441.38;;;7.58;77.13
32875;BME280;40468;42.128;24.750;2022-11-15T00:24:19;100447.34;;;7.60;77.07
32875;BME280;40468;42.128;24.750;2022-11-15T00:25:57;100446.56;;;7.56;77.08
32875;BME280;40468;42.128;24.750;2022-11-15T00:27:29;100450.91;;;7.56;77.32
32875;BME280;40468;42.128;24.750;2022-11-15T00:29:01;100446.63;;;7.55;77.15
32875;BME280;40468;42.128;24.750;2022-11-15T00:30:33;100448.34;;;7.54;77.24
32875;BME280;40468;42.128;24.750;2022-11-15T00:32:05;100447.50;;;7.53;77.42
32875;BME280;40468;42.128;24.750;2022-11-15T00:33:37;100442.31;;;7.53;77.28
32875;BME280;40468;42.128;24.750;2022-11-15T00:35:08;100446.56;;;7.58;77.35
32875;BME280;40468;42.128;24.750;2022-11-15T00:36:40;100446.56;;;7.58;77.18
32875;BME280;40468;42.128;24.750;2022-11-15T00:38:12;100443.00;;;7.62;77.32
32875;BME280;40468;42.128;24.750;2022-11-15T00:39:43;100449.84;;;7.64;77.07
32875;BME280;40468;42.128;24.750;2022-11-15T00:41:16;100449.78;;;7.67;77.20
32875;BME280;40468;42.128;24.750;2022-11-15T00:42:48;100437.72;;;7.66;76.94
32875;BME280;40468;42.128;24.750;2022-11-15T00:44:19;100443.69;;;7.70;76.93
32875;BME280;40468;42.128;24.750;2022-11-15T00:45:51;100442.75;;;7.72;76.99
32875;BME280;40468;42.128;24.750;2022-11-15T00:47:22;100446.16;;;7.74;77.06
32875;BME280;40468;42.128;24.750;2022-11-15T00:48:54;100441.84;;;7.75;77.00
32875;BME280;40468;42.128;24.750;2022-11-15T00:50:25;100436.53;;;7.80;76.69
32875;BME280;40468;42.128;24.750;2022-11-15T00:51:57;100438.19;;;7.82;76.56
32875;BME280;40468;42.128;24.750;2022-11-15T00:53:29;100430.44;;;7.81;76.75
32875;BME280;40468;42.128;24.750;2022-11-15T00:55:01;100425.31;;;7.79;76.64
32875;BME280;40468;42.128;24.750;2022-11-15T00:56:34;100431.41;;;7.77;76.61
32875;BME280;40468;42.128;24.750;2022-11-15T00:58:06;100416.09;;;7.66;76.98
32875;BME280;40468;42.128;24.750;2022-11-15T00:59:38;100425.53;;;7.70;76.94
32875;BME280;40468;42.128;24.750;2022-11-15T01:01:12;100429.00;;;7.69;77.03
32875;BME280;40468;42.128;24.750;2022-11-15T01:02:43;100428.41;;;7.58;76.98
32875;BME280;40468;42.128;24.750;2022-11-15T01:04:15;100434.47;;;7.57;77.32
32875;BME280;40468;42.128;24.750;2022-11-15T01:05:47;100432.75;;;7.56;77.17
32875;BME280;40468;42.128;24.750;2022-11-15T01:07:19;100430.19;;;7.56;77.07
32875;BME280;40468;42.128;24.750;2022-11-15T01:08:50;100434.59;;;7.52;77.39
32875;BME280;40468;42.128;24.750;2022-11-15T01:10:22;100429.41;;;7.52;77.20
32875;BME280;40468;42.128;24.750;2022-11-15T01:11:55;100425.91;;;7.53;77.38
32875;BME280;40468;42.128;24.750;2022-11-15T01:13:29;100431.06;;;7.55;77.13
32875;BME280;40468;42.128;24.750;2022-11-15T01:15:01;100427.59;;;7.54;77.34
32875;BME280;40468;42.128;24.750;2022-11-15T01:16:33;100409.66;;;7.46;77.19
32875;BME280;40468;42.128;24.750;2022-11-15T01:18:05;100421.56;;;7.53;77.23
32875;BME280;40468;42.128;24.750;2022-11-15T01:19:37;100418.97;;;7.53;77.33
32875;BME280;40468;42.128;24.750;2022-11-15T01:21:09;100420.72;;;7.53;77.31
32875;BME280;40468;42.128;24.750;2022-11-15T01:22:41;100419.19;;;7.44;77.18
32875;BME280;40468;42.128;24.750;2022-11-15T01:24:13;100416.66;;;7.43;77.39
32875;BME280;40468;42.128;24.750;2022-11-15T01:25:44;100419.97;;;7.48;77.27
32875;BME280;40468;42.128;24.750;2022-11-15T01:27:18;100417.28;;;7.52;77.31
32875;BME280;40468;42.128;24.750;2022-11-15T01:28:50;100414.63;;;7.56;77.21
32875;BME280;40468;42.128;24.750;2022-11-15T01:30:21;100418.91;;;7.57;77.16
32875;BME280;40468;42.128;24.750;2022-11-15T01:31:53;100418.88;;;7.58;76.90
32875;BME280;40468;42.128;24.750;2022-11-15T01:33:25;100420.50;;;7.62;76.99
32875;BME280;40468;42.128;24.750;2022-11-15T01:34:56;100423.94;;;7.63;76.85
32875;BME280;40468;42.128;24.750;2022-11-15T01:36:28;100421.28;;;7.66;76.94
32875;BME280;40468;42.128;24.750;2022-11-15T01:38:00;100428.19;;;7.67;76.74
32875;BME280;40468;42.128;24.750;2022-11-15T01:39:31;100408.31;;;7.66;76.60
32875;BME280;40468;42.128;24.750;2022-11-15T01:41:03;100411.88;;;7.62;76.59
32875;BME280;40468;42.128;24.750;2022-11-15T01:42:36;100395.63;;;7.55;76.58
32875;BME280;40468;42.128;24.750;2022-11-15T01:44:38;100412.03;;;7.56;76.62
32875;BME280;40468;42.128;24.750;2022-11-15T01:46:22;100404.34;;;7.51;76.53
32875;BME280;40468;42.128;24.750;2022-11-15T01:47:55;100402.78;;;7.45;76.83
32875;BME280;40468;42.128;24.750;2022-11-15T01:49:30;100406.28;;;7.43;76.72
32875;BME280;40468;42.128;24.750;2022-11-15T01:51:06;100399.50;;;7.37;76.78
32875;BME280;40468;42.128;24.750;2022-11-15T01:52:40;100402.16;;;7.34;76.93
32875;BME280;40468;42.128;24.750;2022-11-15T01:54:14;100401.34;;;7.32;77.15
32875;BME280;40468;42.128;24.750;2022-11-15T01:55:47;100400.56;;;7.27;77.02
32875;BME280;40468;42.128;24.750;2022-11-15T01:57:18;100396.34;;;7.23;77.19
32875;BME280;40468;42.128;24.750;2022-11-15T01:58:53;100400.63;;;7.24;77.14
32875;BME280;40468;42.128;24.750;2022-11-15T02:00:27;100403.31;;;7.21;77.28
32875;BME280;40468;42.128;24.750;2022-11-15T02:01:59;100406.78;;;7.20;77.31
32875;BME280;40468;42.128;24.750;2022-11-15T02:03:37;100400.72;;;7.21;77.27
32875;BME280;40468;42.128;24.750;2022-11-15T02:05:12;100402.38;;;7.23;77.34
32875;BME280;40468;42.128;24.750;2022-11-15T02:06:45;100402.31;;;7.26;77.27
32875;BME280;40468;42.128;24.750;2022-11-15T02:08:18;100403.22;;;7.25;77.28
32875;BME280;40468;42.128;24.750;2022-11-15T02:09:51;100408.34;;;7.27;77.35
32875;BME280;40468;42.128;24.750;2022-11-15T02:11:24;100399.78;;;7.25;77.31
32875;BME280;40468;42.128;24.750;2022-11-15T02:12:56;100412.66;;;7.28;77.49
32875;BME280;40468;42.128;24.750;2022-11-15T02:14:32;100364.78;;;7.05;77.49
32875;BME280;40468;42.128;24.750;2022-11-15T02:16:09;100397.97;;;7.28;77.45
32875;BME280;40468;42.128;24.750;2022-11-15T02:17:56;100399.72;;;7.28;77.33
32875;BME280;40468;42.128;24.750;2022-11-15T02:19:46;100403.94;;;7.32;77.59
32875;BME280;40468;42.128;24.750;2022-11-15T02:21:28;100399.63;;;7.31;77.50
32875;BME280;40468;42.128;24.750;2022-11-15T02:25:32;100397.91;;;7.30;77.32
32875;BME280;40468;42.128;24.750;2022-11-15T02:29:23;100382.44;;;7.27;77.12
32875;BME280;40468;42.128;24.750;2022-11-15T02:31:04;100393.34;;;7.41;77.43
32875;BME280;40468;42.128;24.750;2022-11-15T02:32:44;100397.53;;;7.47;77.39
32875;BME280;40468;42.128;24.750;2022-11-15T02:34:22;100352.31;;;7.23;77.04
32875;BME280;40468;42.128;24.750;2022-11-15T02:35:59;100392.28;;;7.50;77.17
32875;BME280;40468;42.128;24.750;2022-11-15T02:37:35;100394.94;;;7.48;76.83
32875;BME280;40468;42.128;24.750;2022-11-15T02:39:11;100396.56;;;7.51;76.83
32875;BME280;40468;42.128;24.750;2022-11-15T02:40:49;100400.84;;;7.53;76.92
32875;BME280;40468;42.128;24.750;2022-11-15T02:42:26;100387.94;;;7.52;76.83
32875;BME280;40468;42.128;24.750;2022-11-15T02:44:19;100394.78;;;7.55;76.81
32875;BME280;40468;42.128;24.750;2022-11-15T02:45:59;100390.47;;;7.53;76.90
32875;BME280;40468;42.128;24.750;2022-11-15T02:47:39;100399.06;;;7.56;76.56
32875;BME280;40468;42.128;24.750;2022-11-15T02:49:13;100393.00;;;7.57;76.67
32875;BME280;40468;42.128;24.750;2022-11-15T02:50:47;100372.41;;;7.50;76.51
32875;BME280;40468;42.128;24.750;2022-11-15T02:52:21;100340.84;;;7.33;76.68
32875;BME280;40468;42.128;24.750;2022-11-15T02:53:53;100384.13;;;7.67;76.41
32875;BME280;40468;42.128;24.750;2022-11-15T02:55:27;100389.25;;;7.68;76.47
32875;BME280;40468;42.128;24.750;2022-11-15T02:57:02;100385.66;;;7.74;76.46
32875;BME280;40468;42.128;24.750;2022-11-15T03:00:35;100367.66;;;7.68;76.19
32875;BME280;40468;42.128;24.750;2022-11-15T03:02:20;100379.53;;;7.78;76.09
32875;BME280;40468;42.128;24.750;2022-11-15T03:04:02;100385.56;;;7.79;76.10
32875;BME280;40468;42.128;24.750;2022-11-15T03:05:45;100385.56;;;7.79;75.93
32875;BME280;40468;42.128;24.750;2022-11-15T03:07:25;100385.59;;;7.77;76.05
32875;BME280;40468;42.128;24.750;2022-11-15T03:09:04;100383.13;;;7.72;75.55
32875;BME280;40468;42.128;24.750;2022-11-15T03:10:44;100382.31;;;7.70;75.58
32875;BME280;40468;42.128;24.750;2022-11-15T03:12:22;100379.78;;;7.67;75.46
32875;BME280;40468;42.128;24.750;2022-11-15T03:13:58;100377.22;;;7.66;75.53
32875;BME280;40468;42.128;24.750;2022-11-15T03:15:35;100382.38;;;7.67;75.34
32875;BME280;40468;42.128;24.750;2022-11-15T03:17:14;100387.56;;;7.67;75.29
32875;BME280;40468;42.128;24.750;2022-11-15T03:18:51;100383.28;;;7.66;75.53
32875;BME280;40468;42.128;24.750;2022-11-15T03:20:26;100391.06;;;7.65;75.65
32875;BME280;40468;42.128;24.750;2022-11-15T03:22:02;100379.81;;;7.66;75.47
32875;BME280;40468;42.128;24.750;2022-11-15T03:23:36;100390.25;;;7.63;75.28
32875;BME280;40468;42.128;24.750;2022-11-15T03:25:11;100355.41;;;7.39;75.53
32875;BME280;40468;42.128;24.750;2022-11-15T03:26:46;100381.78;;;7.56;75.40
32875;BME280;40468;42.128;24.750;2022-11-15T03:28:22;100390.31;;;7.60;75.36
32875;BME280;40468;42.128;24.750;2022-11-15T03:29:58;100387.72;;;7.61;75.40
32875;BME280;40468;42.128;24.750;2022-11-15T03:31:34;100374.75;;;7.61;75.37
32875;BME280;40468;42.128;24.750;2022-11-15T03:33:20;100374.75;;;7.61;75.74
32875;BME280;40468;42.128;24.750;2022-11-15T03:34:57;100377.28;;;7.63;75.48
32875;BME280;40468;42.128;24.750;2022-11-15T03:36:32;100373.84;;;7.62;75.44
32875;BME280;40468;42.128;24.750;2022-11-15T03:38:09;100373.91;;;7.61;75.28
32875;BME280;40468;42.128;24.750;2022-11-15T03:39:43;100377.34;;;7.61;75.43
32875;BME280;40468;42.128;24.750;2022-11-15T03:41:19;100371.31;;;7.61;75.37
32875;BME280;40468;42.128;24.750;2022-11-15T03:43:00;100373.09;;;7.59;75.44
32875;BME280;40468;42.128;24.750;2022-11-15T03:44:39;100366.19;;;7.58;75.54
32875;BME280;40468;42.128;24.750;2022-11-15T03:46:14;100310.97;;;7.18;75.64
32875;BME280;40468;42.128;24.750;2022-11-15T03:47:53;100357.59;;;7.56;75.39
32875;BME280;40468;42.128;24.750;2022-11-15T03:49:30;100354.97;;;7.57;75.62
32875;BME280;40468;42.128;24.750;2022-11-15T03:51:04;100354.13;;;7.57;75.57
32875;BME280;40468;42.128;24.750;2022-11-15T03:52:39;100362.72;;;7.57;75.39
32875;BME280;40468;42.128;24.750;2022-11-15T03:54:12;100349.78;;;7.57;75.31
32875;BME280;40468;42.128;24.750;2022-11-15T03:55:43;100352.38;;;7.57;75.41
32875;BME280;40468;42.128;24.750;2022-11-15T03:57:16;100348.84;;;7.60;75.12
32875;BME280;40468;42.128;24.750;2022-11-15T03:58:46;100344.59;;;7.57;75.04
32875;BME280;40468;42.128;24.750;2022-11-15T04:00:18;100348.84;;;7.60;75.06
32875;BME280;40468;42.128;24.750;2022-11-15T04:01:50;100354.94;;;7.59;75.10
32875;BME280;40468;42.128;24.750;2022-11-15T04:03:22;100350.66;;;7.58;75.19
32875;BME280;40468;42.128;24.750;2022-11-15T04:04:54;100346.31;;;7.58;75.08
32875;BME280;40468;42.128;24.750;2022-11-15T04:06:25;100351.44;;;7.60;75.08
32875;BME280;40468;42.128;24.750;2022-11-15T04:07:58;100345.41;;;7.61;75.26
32875;BME280;40468;42.128;24.750;2022-11-15T04:09:30;100339.41;;;7.57;75.23
32875;BME280;40468;42.128;24.750;2022-11-15T04:11:02;100336.72;;;7.62;75.34
32875;BME280;40468;42.128;24.750;2022-11-15T04:12:34;100344.41;;;7.65;75.23
32875;BME280;40468;42.128;24.750;2022-11-15T04:14:06;100333.28;;;7.61;75.45
32875;BME280;40468;42.128;24.750;2022-11-15T04:15:37;100331.59;;;7.60;75.37
32875;BME280;40468;42.128;24.750;2022-11-15T04:17:09;100346.13;;;7.66;75.40
32875;BME280;40468;42.128;24.750;2022-11-15T04:18:40;100334.09;;;7.63;75.08
32875;BME280;40468;42.128;24.750;2022-11-15T04:20:15;100331.50;;;7.63;75.01
32875;BME280;40468;42.128;24.750;2022-11-15T04:22:07;100334.13;;;7.62;75.18
32875;BME280;40468;42.128;24.750;2022-11-15T04:23:57;100330.75;;;7.58;75.15
32875;BME280;40468;42.128;24.750;2022-11-15T04:25:45;100328.25;;;7.55;75.31
32875;BME280;40468;42.128;24.750;2022-11-15T04:27:18;100330.00;;;7.55;74.97
32875;BME280;40468;42.128;24.750;2022-11-15T04:28:50;100339.41;;;7.57;74.72
32875;BME280;40468;42.128;24.750;2022-11-15T04:30:40;100325.88;;;7.46;74.81
32875;BME280;40468;42.128;24.750;2022-11-15T04:32:11;100325.75;;;7.50;74.98
32875;BME280;40468;42.128;24.750;2022-11-15T04:33:42;100330.91;;;7.52;74.82
32875;BME280;40468;42.128;24.750;2022-11-15T04:35:14;100325.72;;;7.52;74.73
32875;BME280;40468;42.128;24.750;2022-11-15T04:36:45;100324.00;;;7.52;74.61
32875;BME280;40468;42.128;24.750;2022-11-15T04:38:35;100296.78;;;7.35;74.70
32875;BME280;40468;42.128;24.750;2022-11-15T04:40:09;100331.00;;;7.49;74.92
32875;BME280;40468;42.128;24.750;2022-11-15T04:41:41;100329.31;;;7.46;74.78
32875;BME280;40468;42.128;24.750;2022-11-15T04:43:13;100333.59;;;7.49;74.71
32875;BME280;40468;42.128;24.750;2022-11-15T04:44:45;100330.16;;;7.48;74.85
32875;BME280;40468;42.128;24.750;2022-11-15T04:46:17;100325.91;;;7.44;74.60
32875;BME280;40468;42.128;24.750;2022-11-15T04:47:49;100325.06;;;7.44;74.79
32875;BME280;40468;42.128;24.750;2022-11-15T04:49:21;100332.84;;;7.44;74.68
32875;BME280;40468;42.128;24.750;2022-11-15T04:50:53;100335.44;;;7.42;74.87
32875;BME280;40468;42.128;24.750;2022-11-15T04:52:25;100328.56;;;7.41;75.03
32875;BME280;40468;42.128;24.750;2022-11-15T04:53:55;100327.72;;;7.41;74.88
32875;BME280;40468;42.128;24.750;2022-11-15T04:55:29;100330.31;;;7.41;74.97
32875;BME280;40468;42.128;24.750;2022-11-15T04:57:01;100331.22;;;7.38;75.04
32875;BME280;40468;42.128;24.750;2022-11-15T04:58:33;100326.94;;;7.37;75.06
32875;BME280;40468;42.128;24.750;2022-11-15T05:00:07;100326.06;;;7.38;74.73
32875;BME280;40468;42.128;24.750;2022-11-15T05:01:40;100329.53;;;7.37;75.03
32875;BME280;40468;42.128;24.750;2022-11-15T05:03:10;100323.47;;;7.38;75.19
32875;BME280;40468;42.128;24.750;2022-11-15T05:05:00;100331.28;;;7.37;75.17
32875;BME280;40468;42.128;24.750;2022-11-15T05:06:32;100325.22;;;7.36;75.09
32875;BME280;40468;42.128;24.750;2022-11-15T05:08:03;100325.22;;;7.36;75.13
32875;BME280;40468;42.128;24.750;2022-11-15T05:09:35;100321.78;;;7.37;75.00
32875;BME280;40468;42.128;24.750;2022-11-15T05:11:08;100327.81;;;7.36;74.95
32875;BME280;40468;42.128;24.750;2022-11-15T05:12:40;100332.16;;;7.36;74.96
32875;BME280;40468;42.128;24.750;2022-11-15T05:14:12;100323.53;;;7.35;75.00
32875;BME280;40468;42.128;24.750;2022-11-15T05:15:44;100323.50;;;7.37;75.17
32875;BME280;40468;42.128;24.750;2022-11-15T05:17:16;100328.69;;;7.37;75.13
32875;BME280;40468;42.128;24.750;2022-11-15T05:18:46;100332.06;;;7.39;74.92
32875;BME280;40468;42.128;24.750;2022-11-15T05:20:18;100333.81;;;7.38;75.13
32875;BME280;40468;42.128;24.750;2022-11-15T05:21:50;100332.13;;;7.37;75.08
32875;BME280;40468;42.128;24.750;2022-11-15T05:23:22;100332.13;;;7.37;75.30
32875;BME280;40468;42.128;24.750;2022-11-15T05:24:53;100330.34;;;7.39;75.02
32875;BME280;40468;42.128;24.750;2022-11-15T05:26:26;100327.75;;;7.39;75.15
32875;BME280;40468;42.128;24.750;2022-11-15T05:27:58;100329.56;;;7.36;75.24
32875;BME280;40468;42.128;24.750;2022-11-15T05:29:30;100326.09;;;7.37;75.23
32875;BME280;40468;42.128;24.750;2022-11-15T05:31:02;100309.09;;;7.25;75.12
32875;BME280;40468;42.128;24.750;2022-11-15T05:32:33;100331.22;;;7.38;75.24
32875;BME280;40468;42.128;24.750;2022-11-15T05:34:05;100323.50;;;7.37;75.11
32875;BME280;40468;42.128;24.750;2022-11-15T05:35:39;100330.34;;;7.39;75.11
32875;BME280;40468;42.128;24.750;2022-11-15T05:37:13;100326.09;;;7.37;75.03
32875;BME280;40468;42.128;24.750;2022-11-15T05:38:46;100295.47;;;7.17;74.96
32875;BME280;40468;42.128;24.750;2022-11-15T05:40:17;100326.06;;;7.38;74.77
32875;BME280;40468;42.128;24.750;2022-11-15T05:41:53;100326.88;;;7.40;74.82
32875;BME280;40468;42.128;24.750;2022-11-15T05:43:26;100332.00;;;7.42;74.97
32875;BME280;40468;42.128;24.750;2022-11-15T05:44:59;100331.94;;;7.45;74.98
32875;BME280;40468;42.128;24.750;2022-11-15T05:46:35;100326.72;;;7.46;74.84
32875;BME280;40468;42.128;24.750;2022-11-15T05:48:09;100331.84;;;7.49;74.94
32875;BME280;40468;42.128;24.750;2022-11-15T05:49:43;100337.78;;;7.53;74.84
32875;BME280;40468;42.128;24.750;2022-11-15T05:51:17;100342.06;;;7.56;74.57
32875;BME280;40468;42.128;24.750;2022-11-15T05:52:51;100342.81;;;7.59;74.50
32875;BME280;40468;42.128;24.750;2022-11-15T05:54:24;100344.50;;;7.62;74.50
32875;BME280;40468;42.128;24.750;2022-11-15T05:55:56;100342.75;;;7.62;74.49
32875;BME280;40468;42.128;24.750;2022-11-15T05:57:29;100344.41;;;7.65;74.24
32875;BME280;40468;42.128;24.750;2022-11-15T05:59:02;100345.25;;;7.65;74.23
32875;BME280;40468;42.128;24.750;2022-11-15T06:00:34;100345.25;;;7.67;74.03
32875;BME280;40468;42.128;24.750;2022-11-15T06:02:06;100348.63;;;7.69;73.93
32875;BME280;40468;42.128;24.750;2022-11-15T06:03:38;100347.75;;;7.70;73.44
32875;BME280;40468;42.128;24.750;2022-11-15T06:05:10;100348.63;;;7.69;73.45
32875;BME280;40468;42.128;24.750;2022-11-15T06:06:43;100349.44;;;7.72;73.47
32875;BME280;40468;42.128;24.750;2022-11-15T06:08:15;100354.56;;;7.74;73.26
32875;BME280;40468;42.128;24.750;2022-11-15T06:09:47;100347.56;;;7.78;73.39
32875;BME280;40468;42.128;24.750;2022-11-15T06:11:19;100348.34;;;7.81;73.09
32875;BME280;40468;42.128;24.750;2022-11-15T06:12:57;100354.25;;;7.86;73.38
32875;BME280;40468;42.128;24.750;2022-11-15T06:14:29;100350.72;;;7.89;73.12
32875;BME280;40468;42.128;24.750;2022-11-15T06:16:02;100342.16;;;7.87;73.07
32875;BME280;40468;42.128;24.750;2022-11-15T06:17:34;100351.41;;;7.95;73.09
32875;BME280;40468;42.128;24.750;2022-11-15T06:19:06;100355.66;;;8.00;72.93
32875;BME280;40468;42.128;24.750;2022-11-15T06:20:38;100358.16;;;8.03;72.69
32875;BME280;40468;42.128;24.750;2022-11-15T06:22:10;100355.44;;;8.07;72.91
32875;BME280;40468;42.128;24.750;2022-11-15T06:23:42;100357.09;;;8.10;72.69
32875;BME280;40468;42.128;24.750;2022-11-15T06:25:15;100359.63;;;8.13;72.44
32875;BME280;40468;42.128;24.750;2022-11-15T06:26:47;100360.50;;;8.13;72.63
32875;BME280;40468;42.128;24.750;2022-11-15T06:28:20;100356.91;;;8.17;72.37
32875;BME280;40468;42.128;24.750;2022-11-15T06:29:52;100356.91;;;8.17;72.35
32875;BME280;40468;42.128;24.750;2022-11-15T06:31:24;100352.50;;;8.21;72.40
32875;BME280;40468;42.128;24.750;2022-11-15T06:33:01;100352.50;;;8.21;72.44
32875;BME280;40468;42.128;24.750;2022-11-15T06:34:33;100357.69;;;8.21;72.07
32875;BME280;40468;42.128;24.750;2022-11-15T06:36:08;100356.78;;;8.22;72.17
32875;BME280;40468;42.128;24.750;2022-11-15T06:37:40;100356.75;;;8.24;72.15
32875;BME280;40468;42.128;24.750;2022-11-15T06:39:12;100358.34;;;8.29;72.06
32875;BME280;40468;42.128;24.750;2022-11-15T06:40:45;100346.97;;;8.33;71.98
32875;BME280;40468;42.128;24.750;2022-11-15T06:42:23;100355.41;;;8.43;72.10
32875;BME280;40468;42.128;24.750;2022-11-15T06:43:56;100350.00;;;8.51;71.62
32875;BME280;40468;42.128;24.750;2022-11-15T06:45:29;100352.41;;;8.57;71.39
32875;BME280;40468;42.128;24.750;2022-11-15T06:47:01;100349.72;;;8.60;71.14
32875;BME280;40468;42.128;24.750;2022-11-15T06:48:33;100358.16;;;8.68;71.41
32875;BME280;40468;42.128;24.750;2022-11-15T06:50:07;100349.38;;;8.72;71.01
32875;BME280;40468;42.128;24.750;2022-11-15T06:51:39;100356.22;;;8.75;70.97
32875;BME280;40468;42.128;24.750;2022-11-15T06:53:11;100358.66;;;8.81;70.72
32875;BME280;40468;42.128;24.750;2022-11-15T06:54:43;100355.94;;;8.85;70.63
32875;BME280;40468;42.128;24.750;2022-11-15T06:56:15;100356.59;;;8.92;70.42
32875;BME280;40468;42.128;24.750;2022-11-15T06:57:48;100360.72;;;8.99;70.06
32875;BME280;40468;42.128;24.750;2022-11-15T06:59:21;100352.75;;;9.05;69.85
32875;BME280;40468;42.128;24.750;2022-11-15T07:00:57;100354.31;;;9.11;69.74
32875;BME280;40468;42.128;24.750;2022-11-15T07:02:29;100348.13;;;9.15;69.31
32875;BME280;40468;42.128;24.750;2022-11-15T07:04:01;100355.72;;;9.21;69.28
32875;BME280;40468;42.128;24.750;2022-11-15T07:05:33;100346.03;;;9.26;68.92
32875;BME280;40468;42.128;24.750;2022-11-15T07:07:06;100349.22;;;9.34;68.83
32875;BME280;40468;42.128;24.750;2022-11-15T07:08:37;100347.34;;;9.40;68.20
32875;BME280;40468;42.128;24.750;2022-11-15T07:10:12;100342.88;;;9.45;68.01
32875;BME280;40468;42.128;24.750;2022-11-15T07:11:44;100336.56;;;9.52;67.79
32875;BME280;40468;42.128;24.750;2022-11-15T07:13:16;100337.16;;;9.60;67.67
32875;BME280;40468;42.128;24.750;2022-11-15T07:14:49;100335.09;;;9.70;67.43
32875;BME280;40468;42.128;24.750;2022-11-15T07:16:21;100329.81;;;9.73;67.61
32875;BME280;40468;42.128;24.750;2022-11-15T07:17:53;100340.88;;;9.79;66.81
32875;BME280;40468;42.128;24.750;2022-11-15T07:19:25;100337.06;;;9.90;66.62
32875;BME280;40468;42.128;24.750;2022-11-15T07:21:00;100328.78;;;10.03;66.35
32875;BME280;40468;42.128;24.750;2022-11-15T07:22:32;100329.91;;;10.21;65.78
32875;BME280;40468;42.128;24.750;2022-11-15T07:24:05;100329.22;;;10.41;65.72
32875;BME280;40468;42.128;24.750;2022-11-15T07:25:37;100325.72;;;10.66;65.19
32875;BME280;40468;42.128;24.750;2022-11-15T07:27:09;100332.88;;;11.06;65.08
32875;BME280;40468;42.128;24.750;2022-11-15T07:28:41;100328.44;;;11.52;63.89
32875;BME280;40468;42.128;24.750;2022-11-15T07:30:15;100331.00;;;11.96;62.42
32875;BME280;40468;42.128;24.750;2022-11-15T07:31:47;100328.22;;;12.40;61.64
32875;BME280;40468;42.128;24.750;2022-11-15T07:33:19;100331.16;;;12.91;61.24
32875;BME280;40468;42.128;24.750;2022-11-15T07:34:51;100333.25;;;13.39;59.79
32875;BME280;40468;42.128;24.750;2022-11-15T07:36:23;100326.59;;;13.86;59.14
32875;BME280;40468;42.128;24.750;2022-11-15T07:37:59;100328.72;;;14.30;58.20
32875;BME280;40468;42.128;24.750;2022-11-15T07:39:32;100324.88;;;14.70;56.85
32875;BME280;40468;42.128;24.750;2022-11-15T07:41:04;100320.75;;;14.98;55.51
32875;BME280;40468;42.128;24.750;2022-11-15T07:42:36;100318.69;;;15.19;54.60
32875;BME280;40468;42.128;24.750;2022-11-15T07:44:26;100315.97;;;15.36;53.45
32875;BME280;40468;42.128;24.750;2022-11-15T07:46:04;100322.97;;;15.52;53.36
32875;BME280;40468;42.128;24.750;2022-11-15T07:47:39;100322.06;;;15.67;52.57
32875;BME280;40468;42.128;24.750;2022-11-15T07:49:11;100320.19;;;15.85;51.88
32875;BME280;40468;42.128;24.750;2022-11-15T07:50:44;100323.25;;;16.07;52.61
32875;BME280;40468;42.128;24.750;2022-11-15T07:52:16;100324.19;;;16.21;51.33
32875;BME280;40468;42.128;24.750;2022-11-15T07:53:47;100293.59;;;16.20;50.39
32875;BME280;40468;42.128;24.750;2022-11-15T07:55:19;100323.25;;;16.50;49.98
32875;BME280;40468;42.128;24.750;2022-11-15T07:56:51;100322.16;;;16.69;49.45
32875;BME280;40468;42.128;24.750;2022-11-15T07:58:23;100314.53;;;16.93;49.15
32875;BME280;40468;42.128;24.750;2022-11-15T07:59:55;100318.22;;;17.17;48.66
32875;BME280;40468;42.128;24.750;2022-11-15T08:01:28;100313.25;;;17.40;47.99
32875;BME280;40468;42.128;24.750;2022-11-15T08:03:04;100318.34;;;17.56;47.71
32875;BME280;40468;42.128;24.750;2022-11-15T08:04:36;100320.09;;;17.69;46.83
32875;BME280;40468;42.128;24.750;2022-11-15T08:06:08;100311.38;;;17.82;46.46
32875;BME280;40468;42.128;24.750;2022-11-15T08:07:40;100314.66;;;17.98;46.22
32875;BME280;40468;42.128;24.750;2022-11-15T08:09:12;100313.44;;;18.16;45.98
32875;BME280;40468;42.128;24.750;2022-11-15T08:10:44;100302.97;;;18.28;45.63
32875;BME280;40468;42.128;24.750;2022-11-15T08:12:16;100293.16;;;18.30;44.72
32875;BME280;40468;42.128;24.750;2022-11-15T08:13:48;100298.94;;;18.48;44.05
32875;BME280;40468;42.128;24.750;2022-11-15T08:15:19;100302.00;;;18.54;44.00
32875;BME280;40468;42.128;24.750;2022-11-15T08:16:54;100301.47;;;18.62;43.84